sensor_id;sensor_type;location;lat;lon;timestamp;P1;durP1;ratioP1;P2;durP2;ratioP2
23140;SDS011;11739;54.750;9.124;2022-09-20T00:01:16;2.40;;;0.60;;
23140;SDS011;11739;54.750;9.124;2022-09-20T00:03:51;2.42;;;0.63;;
23140;SDS011;11739;54.750;9.124;2022-09-20T00:06:20;0.50;;;0.50;;
23140;SDS011;11739;54.750;9.124;2022-09-20T00:08:48;0.40;;;0.40;;
23140;SDS011;11739;54.750;9.124;2022-09-20T00:11:16;2.08;;;0.70;;
23140;SDS011;11739;54.750;9.124;2022-09-20T00:13:45;0.57;;;0.50;;
23140;SDS011;11739;54.750;9.124;2022-09-20T00:16:14;1.90;;;0.50;;
23140;SDS011;11739;54.750;9.124;2022-09-20T00:18:43;2.30;;;0.80;;
23140;SDS011;11739;54.750;9.124;2022-09-20T00:21:17;0.95;;;0.70;;
23140;SDS011;11739;54.750;9.124;2022-09-20T00:23:45;1.60;;;0.73;;
23140;SDS011;11739;54.750;9.124;2022-09-20T00:26:12;3.05;;;1.15;;
23140;SDS011;11739;54.750;9.124;2022-09-20T00:28:42;3.50;;;0.75;;
23140;SDS011;11739;54.750;9.124;2022-09-20T00:31:09;1.38;;;0.75;;
23140;SDS011;11739;54.750;9.124;2022-09-20T00:33:36;2.28;;;0.80;;
23140;SDS011;11739;54.750;9.124;2022-09-20T00:36:21;1.75;;;0.90;;
23140;SDS011;11739;54.750;9.124;2022-09-20T00:38:48;1.75;;;0.80;;
23140;SDS011;11739;54.750;9.124;2022-09-20T00:41:14;1.13;;;0.75;;
23140;SDS011;11739;54.750;9.124;2022-09-20T00:43:44;1.95;;;0.90;;
23140;SDS011;11739;54.750;9.124;2022-09-20T00:46:22;1.73;;;0.95;;
23140;SDS011;11739;54.750;9.124;2022-09-20T00:48:52;3.05;;;0.85;;
23140;SDS011;11739;54.750;9.124;2022-09-20T00:51:32;2.95;;;1.10;;
23140;SDS011;11739;54.750;9.124;2022-09-20T00:54:00;1.33;;;0.50;;
23140;SDS011;11739;54.750;9.124;2022-09-20T00:56:30;1.25;;;0.75;;
23140;SDS011;11739;54.750;9.124;2022-09-20T01:01:33;0.57;;;0.50;;
23140;SDS011;11739;54.750;9.124;2022-09-20T01:04:00;0.90;;;0.60;;
23140;SDS011;11739;54.750;9.124;2022-09-20T01:06:27;0.60;;;0.50;;
23140;SDS011;11739;54.750;9.124;2022-09-20T01:08:54;1.63;;;1.00;;
23140;SDS011;11739;54.750;9.124;2022-09-20T01:11:23;1.65;;;0.80;;
23140;SDS011;11739;54.750;9.124;2022-09-20T01:13:50;2.60;;;1.10;;
23140;SDS011;11739;54.750;9.124;2022-09-20T01:16:17;1.73;;;1.00;;
23140;SDS011;11739;54.750;9.124;2022-09-20T01:18:44;2.42;;;0.80;;
23140;SDS011;11739;54.750;9.124;2022-09-20T01:21:11;3.33;;;1.10;;
23140;SDS011;11739;54.750;9.124;2022-09-20T01:23:47;1.30;;;0.80;;
23140;SDS011;11739;54.750;9.124;2022-09-20T01:29:11;2.10;;;0.98;;
23140;SDS011;11739;54.750;9.124;2022-09-20T01:31:52;1.67;;;1.00;;
23140;SDS011;11739;54.750;9.124;2022-09-20T01:34:23;1.67;;;1.00;;
23140;SDS011;11739;54.750;9.124;2022-09-20T01:39:45;1.17;;;0.70;;
23140;SDS011;11739;54.750;9.124;2022-09-20T01:42:22;1.10;;;0.60;;
23140;SDS011;11739;54.750;9.124;2022-09-20T01:47:58;0.80;;;0.80;;
23140;SDS011;11739;54.750;9.124;2022-09-20T01:50:42;1.33;;;0.73;;
23140;SDS011;11739;54.750;9.124;2022-09-20T01:53:37;0.70;;;0.70;;
23140;SDS011;11739;54.750;9.124;2022-09-20T02:05:33;3.42;;;0.90;;
23140;SDS011;11739;54.750;9.124;2022-09-20T02:13:27;1.03;;;0.50;;
23140;SDS011;11739;54.750;9.124;2022-09-20T02:16:05;1.40;;;0.77;;
23140;SDS011;11739;54.750;9.124;2022-09-20T02:21:29;1.10;;;0.90;;
23140;SDS011;11739;54.750;9.124;2022-09-20T02:32:39;1.35;;;0.80;;
23140;SDS011;11739;54.750;9.124;2022-09-20T02:38:04;0.88;;;0.80;;
23140;SDS011;11739;54.750;9.124;2022-09-20T02:49:06;3.00;;;1.00;;
23140;SDS011;11739;54.750;9.124;2022-09-20T02:51:43;1.08;;;0.98;;
23140;SDS011;11739;54.750;9.124;2022-09-20T02:56:59;1.60;;;1.30;;
23140;SDS011;11739;54.750;9.124;2022-09-20T03:02:29;2.90;;;1.20;;
23140;SDS011;11739;54.750;9.124;2022-09-20T03:05:57;1.70;;;1.10;;
23140;SDS011;11739;54.750;9.124;2022-09-20T03:11:18;1.77;;;0.98;;
23140;SDS011;11739;54.750;9.124;2022-09-20T03:22:38;2.47;;;1.10;;
23140;SDS011;11739;54.750;9.124;2022-09-20T03:25:21;2.95;;;1.30;;
23140;SDS011;11739;54.750;9.124;2022-09-20T03:31:22;2.97;;;1.40;;
23140;SDS011;11739;54.750;9.124;2022-09-20T03:36:53;3.28;;;1.10;;
23140;SDS011;11739;54.750;9.124;2022-09-20T03:42:25;2.30;;;1.20;;
23140;SDS011;11739;54.750;9.124;2022-09-20T03:47:42;3.70;;;1.52;;
23140;SDS011;11739;54.750;9.124;2022-09-20T03:50:48;1.15;;;0.90;;
23140;SDS011;11739;54.750;9.124;2022-09-20T03:59:01;5.43;;;1.58;;
23140;SDS011;11739;54.750;9.124;2022-09-20T04:01:59;1.27;;;1.13;;
23140;SDS011;11739;54.750;9.124;2022-09-20T04:04:39;4.60;;;1.58;;
23140;SDS011;11739;54.750;9.124;2022-09-20T04:09:54;1.85;;;1.50;;
23140;SDS011;11739;54.750;9.124;2022-09-20T04:12:50;3.28;;;1.88;;
23140;SDS011;11739;54.750;9.124;2022-09-20T04:18:27;2.45;;;1.25;;
23140;SDS011;11739;54.750;9.124;2022-09-20T04:23:44;4.32;;;1.45;;
23140;SDS011;11739;54.750;9.124;2022-09-20T04:26:21;2.55;;;1.40;;
23140;SDS011;11739;54.750;9.124;2022-09-20T04:29:39;2.67;;;1.50;;
23140;SDS011;11739;54.750;9.124;2022-09-20T04:34:41;1.67;;;1.10;;
23140;SDS011;11739;54.750;9.124;2022-09-20T04:37:47;4.82;;;1.70;;
23140;SDS011;11739;54.750;9.124;2022-09-20T04:40:23;3.25;;;1.52;;
23140;SDS011;11739;54.750;9.124;2022-09-20T04:56:58;2.78;;;1.60;;
23140;SDS011;11739;54.750;9.124;2022-09-20T04:59:56;1.98;;;1.55;;
23140;SDS011;11739;54.750;9.124;2022-09-20T05:02:36;2.28;;;1.45;;
23140;SDS011;11739;54.750;9.124;2022-09-20T05:08:20;2.45;;;1.45;;
23140;SDS011;11739;54.750;9.124;2022-09-20T05:16:28;2.55;;;1.13;;
23140;SDS011;11739;54.750;9.124;2022-09-20T05:22:07;1.20;;;1.10;;
23140;SDS011;11739;54.750;9.124;2022-09-20T05:25:04;1.00;;;0.90;;
23140;SDS011;11739;54.750;9.124;2022-09-20T05:27:49;1.10;;;1.00;;
23140;SDS011;11739;54.750;9.124;2022-09-20T05:30:48;3.17;;;1.45;;
23140;SDS011;11739;54.750;9.124;2022-09-20T05:33:24;2.47;;;1.00;;
23140;SDS011;11739;54.750;9.124;2022-09-20T05:36:10;1.23;;;1.13;;
23140;SDS011;11739;54.750;9.124;2022-09-20T05:38:49;1.50;;;1.10;;
23140;SDS011;11739;54.750;9.124;2022-09-20T05:47:16;1.33;;;0.98;;
23140;SDS011;11739;54.750;9.124;2022-09-20T05:49:51;3.17;;;1.40;;
23140;SDS011;11739;54.750;9.124;2022-09-20T05:58:10;2.90;;;1.25;;
23140;SDS011;11739;54.750;9.124;2022-09-20T06:01:00;2.58;;;1.30;;
23140;SDS011;11739;54.750;9.124;2022-09-20T06:03:46;1.60;;;1.20;;
23140;SDS011;11739;54.750;9.124;2022-09-20T06:18:12;2.25;;;1.10;;
23140;SDS011;11739;54.750;9.124;2022-09-20T06:20:55;1.85;;;1.20;;
23140;SDS011;11739;54.750;9.124;2022-09-20T06:23:26;2.65;;;1.15;;
23140;SDS011;11739;54.750;9.124;2022-09-20T06:26:01;2.03;;;1.40;;
23140;SDS011;11739;54.750;9.124;2022-09-20T06:28:34;3.15;;;1.20;;
23140;SDS011;11739;54.750;9.124;2022-09-20T06:31:03;2.75;;;1.30;;
23140;SDS011;11739;54.750;9.124;2022-09-20T06:33:32;2.78;;;1.33;;
23140;SDS011;11739;54.750;9.124;2022-09-20T06:36:11;2.85;;;1.30;;
23140;SDS011;11739;54.750;9.124;2022-09-20T06:39:21;5.63;;;1.67;;
23140;SDS011;11739;54.750;9.124;2022-09-20T06:42:17;2.83;;;1.13;;
23140;SDS011;11739;54.750;9.124;2022-09-20T06:44:44;3.17;;;1.42;;
23140;SDS011;11739;54.750;9.124;2022-09-20T06:47:11;4.60;;;1.50;;
23140;SDS011;11739;54.750;9.124;2022-09-20T06:49:39;2.67;;;1.30;;
23140;SDS011;11739;54.750;9.124;2022-09-20T06:52:11;2.38;;;1.23;;
23140;SDS011;11739;54.750;9.124;2022-09-20T06:54:41;2.78;;;1.60;;
23140;SDS011;11739;54.750;9.124;2022-09-20T06:57:14;4.65;;;1.73;;
23140;SDS011;11739;54.750;9.124;2022-09-20T06:59:43;3.00;;;1.55;;
23140;SDS011;11739;54.750;9.124;2022-09-20T07:02:10;3.03;;;1.70;;
23140;SDS011;11739;54.750;9.124;2022-09-20T07:04:37;4.07;;;1.58;;
23140;SDS011;11739;54.750;9.124;2022-09-20T07:07:04;5.32;;;1.50;;
23140;SDS011;11739;54.750;9.124;2022-09-20T07:09:34;5.50;;;2.00;;
23140;SDS011;11739;54.750;9.124;2022-09-20T07:12:01;5.90;;;1.80;;
23140;SDS011;11739;54.750;9.124;2022-09-20T07:14:30;6.10;;;1.80;;
23140;SDS011;11739;54.750;9.124;2022-09-20T07:16:57;4.07;;;1.73;;
23140;SDS011;11739;54.750;9.124;2022-09-20T07:19:23;5.00;;;1.83;;
23140;SDS011;11739;54.750;9.124;2022-09-20T07:21:50;4.28;;;1.80;;
23140;SDS011;11739;54.750;9.124;2022-09-20T07:24:16;6.95;;;1.98;;
23140;SDS011;11739;54.750;9.124;2022-09-20T07:27:17;4.20;;;1.60;;
23140;SDS011;11739;54.750;9.124;2022-09-20T07:29:36;4.20;;;1.60;;
23140;SDS011;11739;54.750;9.124;2022-09-20T07:32:03;7.18;;;2.13;;
23140;SDS011;11739;54.750;9.124;2022-09-20T07:34:29;6.22;;;2.08;;
23140;SDS011;11739;54.750;9.124;2022-09-20T07:36:55;5.45;;;1.95;;
23140;SDS011;11739;54.750;9.124;2022-09-20T07:39:24;11.10;;;2.22;;
23140;SDS011;11739;54.750;9.124;2022-09-20T07:41:51;6.15;;;1.83;;
23140;SDS011;11739;54.750;9.124;2022-09-20T07:44:18;7.50;;;1.92;;
23140;SDS011;11739;54.750;9.124;2022-09-20T07:46:50;6.60;;;1.80;;
23140;SDS011;11739;54.750;9.124;2022-09-20T07:49:18;6.32;;;1.58;;
23140;SDS011;11739;54.750;9.124;2022-09-20T07:51:44;6.22;;;1.90;;
23140;SDS011;11739;54.750;9.124;2022-09-20T07:54:11;3.22;;;1.42;;
23140;SDS011;11739;54.750;9.124;2022-09-20T07:56:37;4.32;;;1.75;;
23140;SDS011;11739;54.750;9.124;2022-09-20T07:59:04;9.13;;;1.63;;
23140;SDS011;11739;54.750;9.124;2022-09-20T08:01:31;3.60;;;1.52;;
23140;SDS011;11739;54.750;9.124;2022-09-20T08:03:57;5.43;;;1.55;;
23140;SDS011;11739;54.750;9.124;2022-09-20T08:06:24;8.52;;;1.88;;
23140;SDS011;11739;54.750;9.124;2022-09-20T08:08:51;4.45;;;1.52;;
23140;SDS011;11739;54.750;9.124;2022-09-20T08:11:19;5.32;;;1.70;;
23140;SDS011;11739;54.750;9.124;2022-09-20T08:13:53;4.38;;;2.05;;
23140;SDS011;11739;54.750;9.124;2022-09-20T08:16:37;5.93;;;1.60;;
23140;SDS011;11739;54.750;9.124;2022-09-20T08:19:05;7.57;;;2.03;;
23140;SDS011;11739;54.750;9.124;2022-09-20T08:21:32;5.35;;;1.42;;
23140;SDS011;11739;54.750;9.124;2022-09-20T08:23:59;6.40;;;1.70;;
23140;SDS011;11739;54.750;9.124;2022-09-20T08:26:27;6.75;;;2.10;;
23140;SDS011;11739;54.750;9.124;2022-09-20T08:28:55;5.05;;;1.40;;
23140;SDS011;11739;54.750;9.124;2022-09-20T08:31:23;5.28;;;1.92;;
23140;SDS011;11739;54.750;9.124;2022-09-20T08:33:52;4.95;;;2.00;;
23140;SDS011;11739;54.750;9.124;2022-09-20T08:36:20;4.38;;;1.55;;
23140;SDS011;11739;54.750;9.124;2022-09-20T08:38:49;8.07;;;2.03;;
23140;SDS011;11739;54.750;9.124;2022-09-20T08:44:23;5.45;;;1.70;;
23140;SDS011;11739;54.750;9.124;2022-09-20T08:49:48;6.45;;;1.98;;
23140;SDS011;11739;54.750;9.124;2022-09-20T08:52:26;5.07;;;1.65;;
23140;SDS011;11739;54.750;9.124;2022-09-20T08:55:02;4.05;;;1.58;;
23140;SDS011;11739;54.750;9.124;2022-09-20T08:57:42;5.13;;;1.80;;
23140;SDS011;11739;54.750;9.124;2022-09-20T09:00:13;5.00;;;1.65;;
23140;SDS011;11739;54.750;9.124;2022-09-20T09:02:42;7.05;;;1.80;;
23140;SDS011;11739;54.750;9.124;2022-09-20T09:05:19;4.70;;;1.70;;
23140;SDS011;11739;54.750;9.124;2022-09-20T09:07:51;5.28;;;1.85;;
23140;SDS011;11739;54.750;9.124;2022-09-20T09:10:18;6.53;;;1.70;;
23140;SDS011;11739;54.750;9.124;2022-09-20T09:12:44;7.60;;;1.98;;
23140;SDS011;11739;54.750;9.124;2022-09-20T09:15:19;7.13;;;1.73;;
23140;SDS011;11739;54.750;9.124;2022-09-20T09:17:49;3.08;;;1.63;;
23140;SDS011;11739;54.750;9.124;2022-09-20T09:20:17;4.10;;;1.58;;
23140;SDS011;11739;54.750;9.124;2022-09-20T09:22:47;5.13;;;1.20;;
23140;SDS011;11739;54.750;9.124;2022-09-20T09:25:36;7.47;;;1.73;;
23140;SDS011;11739;54.750;9.124;2022-09-20T09:30:37;4.15;;;1.50;;
23140;SDS011;11739;54.750;9.124;2022-09-20T09:33:15;5.15;;;1.85;;
23140;SDS011;11739;54.750;9.124;2022-09-20T09:35:54;4.75;;;1.52;;
23140;SDS011;11739;54.750;9.124;2022-09-20T09:38:29;4.65;;;1.58;;
23140;SDS011;11739;54.750;9.124;2022-09-20T09:40:57;6.13;;;1.73;;
23140;SDS011;11739;54.750;9.124;2022-09-20T09:43:59;3.88;;;1.35;;
23140;SDS011;11739;54.750;9.124;2022-09-20T09:46:36;6.72;;;1.50;;
23140;SDS011;11739;54.750;9.124;2022-09-20T09:49:09;4.38;;;1.45;;
23140;SDS011;11739;54.750;9.124;2022-09-20T09:51:39;6.80;;;1.30;;
23140;SDS011;11739;54.750;9.124;2022-09-20T09:54:10;4.38;;;1.52;;
23140;SDS011;11739;54.750;9.124;2022-09-20T10:05:57;6.82;;;1.75;;
23140;SDS011;11739;54.750;9.124;2022-09-20T10:08:57;4.55;;;1.73;;
23140;SDS011;11739;54.750;9.124;2022-09-20T10:14:38;4.88;;;1.40;;
23140;SDS011;11739;54.750;9.124;2022-09-20T10:17:20;6.85;;;1.50;;
23140;SDS011;11739;54.750;9.124;2022-09-20T10:31:01;4.68;;;1.35;;
23140;SDS011;11739;54.750;9.124;2022-09-20T10:33:43;5.65;;;1.58;;
23140;SDS011;11739;54.750;9.124;2022-09-20T10:38:59;5.15;;;1.50;;
23140;SDS011;11739;54.750;9.124;2022-09-20T10:46:54;3.35;;;1.25;;
23140;SDS011;11739;54.750;9.124;2022-09-20T10:49:34;4.35;;;1.33;;
23140;SDS011;11739;54.750;9.124;2022-09-20T10:58:10;6.05;;;1.20;;
23140;SDS011;11739;54.750;9.124;2022-09-20T11:06:21;6.53;;;1.50;;
23140;SDS011;11739;54.750;9.124;2022-09-20T11:08:51;4.30;;;1.50;;
23140;SDS011;11739;54.750;9.124;2022-09-20T11:11:22;5.35;;;1.35;;
23140;SDS011;11739;54.750;9.124;2022-09-20T11:13:55;6.38;;;1.48;;
23140;SDS011;11739;54.750;9.124;2022-09-20T11:19:18;5.53;;;1.50;;
23140;SDS011;11739;54.750;9.124;2022-09-20T11:21:53;3.60;;;1.10;;
23140;SDS011;11739;54.750;9.124;2022-09-20T11:24:31;5.60;;;1.40;;
23140;SDS011;11739;54.750;9.124;2022-09-20T11:34:53;4.80;;;1.25;;
23140;SDS011;11739;54.750;9.124;2022-09-20T11:37:22;2.20;;;1.00;;
23140;SDS011;11739;54.750;9.124;2022-09-20T11:39:53;2.80;;;1.08;;
23140;SDS011;11739;54.750;9.124;2022-09-20T11:42:25;2.15;;;0.98;;
23140;SDS011;11739;54.750;9.124;2022-09-20T11:44:53;3.45;;;1.10;;
23140;SDS011;11739;54.750;9.124;2022-09-20T11:47:22;3.03;;;1.05;;
23140;SDS011;11739;54.750;9.124;2022-09-20T11:58:08;4.32;;;1.27;;
23140;SDS011;11739;54.750;9.124;2022-09-20T12:00:37;3.30;;;1.10;;
23140;SDS011;11739;54.750;9.124;2022-09-20T12:03:23;3.08;;;0.98;;
23140;SDS011;11739;54.750;9.124;2022-09-20T12:06:02;3.45;;;0.90;;
23140;SDS011;11739;54.750;9.124;2022-09-20T12:11:05;3.38;;;1.05;;
23140;SDS011;11739;54.750;9.124;2022-09-20T12:13:37;3.22;;;0.93;;
23140;SDS011;11739;54.750;9.124;2022-09-20T12:16:06;3.08;;;1.15;;
23140;SDS011;11739;54.750;9.124;2022-09-20T12:18:36;3.75;;;1.08;;
23140;SDS011;11739;54.750;9.124;2022-09-20T12:21:15;2.42;;;0.77;;
23140;SDS011;11739;54.750;9.124;2022-09-20T12:28:56;3.60;;;1.15;;
23140;SDS011;11739;54.750;9.124;2022-09-20T12:39:29;3.58;;;1.00;;
23140;SDS011;11739;54.750;9.124;2022-09-20T12:47:16;2.95;;;1.02;;
23140;SDS011;11739;54.750;9.124;2022-09-20T12:49:48;3.30;;;0.75;;
23140;SDS011;11739;54.750;9.124;2022-09-20T12:55:42;4.28;;;0.98;;
23140;SDS011;11739;54.750;9.124;2022-09-20T12:58:22;2.53;;;0.98;;
23140;SDS011;11739;54.750;9.124;2022-09-20T13:03:47;1.92;;;0.82;;
23140;SDS011;11739;54.750;9.124;2022-09-20T13:08:44;1.77;;;0.82;;
23140;SDS011;11739;54.750;9.124;2022-09-20T13:16:48;0.57;;;0.30;;
23140;SDS011;11739;54.750;9.124;2022-09-20T13:19:31;2.45;;;0.70;;
23140;SDS011;11739;54.750;9.124;2022-09-20T13:24:28;1.98;;;0.50;;
23140;SDS011;11739;54.750;9.124;2022-09-20T13:27:02;1.40;;;0.55;;
23140;SDS011;11739;54.750;9.124;2022-09-20T13:29:32;1.75;;;0.70;;
23140;SDS011;11739;54.750;9.124;2022-09-20T13:40:16;1.65;;;0.70;;
23140;SDS011;11739;54.750;9.124;2022-09-20T13:42:44;1.70;;;0.60;;
23140;SDS011;11739;54.750;9.124;2022-09-20T13:45:14;1.27;;;0.40;;
23140;SDS011;11739;54.750;9.124;2022-09-20T13:47:42;2.60;;;0.70;;
23140;SDS011;11739;54.750;9.124;2022-09-20T13:52:49;1.52;;;0.57;;
23140;SDS011;11739;54.750;9.124;2022-09-20T13:55:18;2.85;;;0.82;;
23140;SDS011;11739;54.750;9.124;2022-09-20T13:57:46;1.80;;;0.80;;
23140;SDS011;11739;54.750;9.124;2022-09-20T14:00:13;2.03;;;0.63;;
23140;SDS011;11739;54.750;9.124;2022-09-20T14:02:40;1.30;;;0.63;;
23140;SDS011;11739;54.750;9.124;2022-09-20T14:05:12;1.67;;;0.40;;
23140;SDS011;11739;54.750;9.124;2022-09-20T14:07:42;2.80;;;0.50;;
23140;SDS011;11739;54.750;9.124;2022-09-20T14:13:15;1.00;;;0.40;;
23140;SDS011;11739;54.750;9.124;2022-09-20T14:15:44;2.10;;;0.68;;
23140;SDS011;11739;54.750;9.124;2022-09-20T14:18:20;0.95;;;0.55;;
23140;SDS011;11739;54.750;9.124;2022-09-20T14:20:47;0.63;;;0.40;;
23140;SDS011;11739;54.750;9.124;2022-09-20T14:23:18;0.60;;;0.40;;
23140;SDS011;11739;54.750;9.124;2022-09-20T14:28:30;1.75;;;0.60;;
23140;SDS011;11739;54.750;9.124;2022-09-20T14:31:07;1.13;;;0.50;;
23140;SDS011;11739;54.750;9.124;2022-09-20T14:33:42;1.67;;;0.70;;
23140;SDS011;11739;54.750;9.124;2022-09-20T14:36:12;1.75;;;0.35;;
23140;SDS011;11739;54.750;9.124;2022-09-20T14:38:43;2.35;;;0.60;;
23140;SDS011;11739;54.750;9.124;2022-09-20T14:41:12;1.63;;;0.50;;
23140;SDS011;11739;54.750;9.124;2022-09-20T14:43:38;2.50;;;0.60;;
23140;SDS011;11739;54.750;9.124;2022-09-20T14:46:15;3.35;;;0.80;;
23140;SDS011;11739;54.750;9.124;2022-09-20T14:48:42;0.88;;;0.50;;
23140;SDS011;11739;54.750;9.124;2022-09-20T14:53:51;1.08;;;0.55;;
23140;SDS011;11739;54.750;9.124;2022-09-20T14:56:33;1.17;;;0.60;;
23140;SDS011;11739;54.750;9.124;2022-09-20T15:01:32;1.73;;;0.60;;
23140;SDS011;11739;54.750;9.124;2022-09-20T15:04:04;3.60;;;0.60;;
23140;SDS011;11739;54.750;9.124;2022-09-20T15:06:36;2.35;;;0.98;;
23140;SDS011;11739;54.750;9.124;2022-09-20T15:09:04;2.20;;;0.98;;
23140;SDS011;11739;54.750;9.124;2022-09-20T15:11:31;1.77;;;1.00;;
23140;SDS011;11739;54.750;9.124;2022-09-20T15:13:58;2.45;;;0.80;;
23140;SDS011;11739;54.750;9.124;2022-09-20T15:16:24;2.28;;;0.95;;
23140;SDS011;11739;54.750;9.124;2022-09-20T15:18:52;2.63;;;0.60;;
23140;SDS011;11739;54.750;9.124;2022-09-20T15:21:19;1.98;;;0.82;;
23140;SDS011;11739;54.750;9.124;2022-09-20T15:23:46;2.22;;;0.68;;
23140;SDS011;11739;54.750;9.124;2022-09-20T15:26:13;2.45;;;0.80;;
23140;SDS011;11739;54.750;9.124;2022-09-20T15:28:52;2.15;;;0.75;;
23140;SDS011;11739;54.750;9.124;2022-09-20T15:31:33;3.80;;;0.80;;
23140;SDS011;11739;54.750;9.124;2022-09-20T15:33:59;1.45;;;0.82;;
23140;SDS011;11739;54.750;9.124;2022-09-20T15:36:26;2.47;;;0.93;;
23140;SDS011;11739;54.750;9.124;2022-09-20T15:38:57;1.65;;;0.65;;
23140;SDS011;11739;54.750;9.124;2022-09-20T15:41:35;5.40;;;3.60;;
23140;SDS011;11739;54.750;9.124;2022-09-20T15:44:02;4.40;;;1.00;;
23140;SDS011;11739;54.750;9.124;2022-09-20T15:46:29;2.38;;;1.17;;
23140;SDS011;11739;54.750;9.124;2022-09-20T15:48:58;1.20;;;0.65;;
23140;SDS011;11739;54.750;9.124;2022-09-20T15:51:25;2.10;;;0.82;;
23140;SDS011;11739;54.750;9.124;2022-09-20T15:57:02;0.82;;;0.60;;
23140;SDS011;11739;54.750;9.124;2022-09-20T15:59:30;1.95;;;1.05;;
23140;SDS011;11739;54.750;9.124;2022-09-20T16:01:59;1.92;;;0.90;;
23140;SDS011;11739;54.750;9.124;2022-09-20T16:04:26;2.25;;;1.02;;
23140;SDS011;11739;54.750;9.124;2022-09-20T16:06:53;1.35;;;0.90;;
23140;SDS011;11739;54.750;9.124;2022-09-20T16:09:19;2.70;;;0.80;;
23140;SDS011;11739;54.750;9.124;2022-09-20T16:11:46;1.38;;;0.73;;
23140;SDS011;11739;54.750;9.124;2022-09-20T16:14:13;3.03;;;1.00;;
23140;SDS011;11739;54.750;9.124;2022-09-20T16:16:40;1.45;;;0.70;;
23140;SDS011;11739;54.750;9.124;2022-09-20T16:19:13;3.78;;;1.00;;
23140;SDS011;11739;54.750;9.124;2022-09-20T16:21:46;1.83;;;0.90;;
23140;SDS011;11739;54.750;9.124;2022-09-20T16:24:58;1.23;;;0.80;;
23140;SDS011;11739;54.750;9.124;2022-09-20T16:27:30;2.90;;;1.08;;
23140;SDS011;11739;54.750;9.124;2022-09-20T16:29:59;2.45;;;0.77;;
23140;SDS011;11739;54.750;9.124;2022-09-20T16:32:27;1.83;;;0.90;;
23140;SDS011;11739;54.750;9.124;2022-09-20T16:34:53;2.70;;;1.00;;
23140;SDS011;11739;54.750;9.124;2022-09-20T16:37:20;2.95;;;0.73;;
23140;SDS011;11739;54.750;9.124;2022-09-20T16:39:47;0.70;;;0.38;;
23140;SDS011;11739;54.750;9.124;2022-09-20T16:42:14;0.93;;;0.50;;
23140;SDS011;11739;54.750;9.124;2022-09-20T16:44:42;1.88;;;0.50;;
23140;SDS011;11739;54.750;9.124;2022-09-20T16:47:09;1.52;;;0.68;;
23140;SDS011;11739;54.750;9.124;2022-09-20T16:49:37;2.63;;;0.85;;
23140;SDS011;11739;54.750;9.124;2022-09-20T16:52:04;2.15;;;0.60;;
23140;SDS011;11739;54.750;9.124;2022-09-20T16:54:31;1.30;;;0.90;;
23140;SDS011;11739;54.750;9.124;2022-09-20T16:56:58;1.77;;;0.77;;
23140;SDS011;11739;54.750;9.124;2022-09-20T16:59:27;1.92;;;0.85;;
23140;SDS011;11739;54.750;9.124;2022-09-20T17:01:54;2.47;;;0.77;;
23140;SDS011;11739;54.750;9.124;2022-09-20T17:04:22;1.83;;;0.70;;
23140;SDS011;11739;54.750;9.124;2022-09-20T17:06:49;0.93;;;0.70;;
23140;SDS011;11739;54.750;9.124;2022-09-20T17:09:16;1.77;;;0.73;;
23140;SDS011;11739;54.750;9.124;2022-09-20T17:11:43;3.78;;;1.00;;
23140;SDS011;11739;54.750;9.124;2022-09-20T17:14:11;1.80;;;0.63;;
23140;SDS011;11739;54.750;9.124;2022-09-20T17:16:39;2.10;;;0.60;;
23140;SDS011;11739;54.750;9.124;2022-09-20T17:19:10;1.88;;;0.80;;
23140;SDS011;11739;54.750;9.124;2022-09-20T17:21:38;2.10;;;0.80;;
23140;SDS011;11739;54.750;9.124;2022-09-20T17:24:09;1.98;;;0.90;;
23140;SDS011;11739;54.750;9.124;2022-09-20T17:26:36;2.70;;;0.85;;
23140;SDS011;11739;54.750;9.124;2022-09-20T17:29:06;2.88;;;0.82;;
23140;SDS011;11739;54.750;9.124;2022-09-20T17:31:38;1.48;;;0.80;;
23140;SDS011;11739;54.750;9.124;2022-09-20T17:34:07;2.28;;;0.90;;
23140;SDS011;11739;54.750;9.124;2022-09-20T17:36:36;1.45;;;0.75;;
23140;SDS011;11739;54.750;9.124;2022-09-20T17:39:07;0.70;;;0.70;;
23140;SDS011;11739;54.750;9.124;2022-09-20T17:41:39;2.85;;;0.85;;
23140;SDS011;11739;54.750;9.124;2022-09-20T17:44:06;1.27;;;0.70;;
23140;SDS011;11739;54.750;9.124;2022-09-20T17:46:35;2.45;;;1.00;;
23140;SDS011;11739;54.750;9.124;2022-09-20T17:49:05;2.05;;;0.82;;
23140;SDS011;11739;54.750;9.124;2022-09-20T17:54:09;2.00;;;0.80;;
23140;SDS011;11739;54.750;9.124;2022-09-20T17:56:40;1.88;;;0.80;;
23140;SDS011;11739;54.750;9.124;2022-09-20T17:59:09;3.10;;;0.90;;
23140;SDS011;11739;54.750;9.124;2022-09-20T18:01:36;1.33;;;0.85;;
23140;SDS011;11739;54.750;9.124;2022-09-20T18:04:04;1.10;;;0.85;;
23140;SDS011;11739;54.750;9.124;2022-09-20T18:06:32;1.35;;;0.80;;
23140;SDS011;11739;54.750;9.124;2022-09-20T18:09:05;0.95;;;0.68;;
23140;SDS011;11739;54.750;9.124;2022-09-20T18:11:36;2.85;;;0.90;;
23140;SDS011;11739;54.750;9.124;2022-09-20T18:14:06;2.47;;;0.73;;
23140;SDS011;11739;54.750;9.124;2022-09-20T18:16:33;2.53;;;0.90;;
23140;SDS011;11739;54.750;9.124;2022-09-20T18:19:00;3.08;;;1.00;;
23140;SDS011;11739;54.750;9.124;2022-09-20T18:21:27;1.65;;;0.90;;
23140;SDS011;11739;54.750;9.124;2022-09-20T18:23:54;2.72;;;0.90;;
23140;SDS011;11739;54.750;9.124;2022-09-20T18:26:23;0.70;;;0.60;;
23140;SDS011;11739;54.750;9.124;2022-09-20T18:31:26;1.70;;;0.63;;
23140;SDS011;11739;54.750;9.124;2022-09-20T18:33:57;0.73;;;0.60;;
23140;SDS011;11739;54.750;9.124;2022-09-20T18:36:28;1.73;;;0.90;;
23140;SDS011;11739;54.750;9.124;2022-09-20T18:38:56;1.23;;;0.70;;
23140;SDS011;11739;54.750;9.124;2022-09-20T18:41:23;1.58;;;0.70;;
23140;SDS011;11739;54.750;9.124;2022-09-20T18:43:52;1.23;;;0.70;;
23140;SDS011;11739;54.750;9.124;2022-09-20T18:46:19;2.47;;;0.73;;
23140;SDS011;11739;54.750;9.124;2022-09-20T18:48:58;2.45;;;0.85;;
23140;SDS011;11739;54.750;9.124;2022-09-20T18:51:30;2.53;;;1.00;;
23140;SDS011;11739;54.750;9.124;2022-09-20T18:56:31;1.65;;;0.77;;
23140;SDS011;11739;54.750;9.124;2022-09-20T18:59:00;4.65;;;1.00;;
23140;SDS011;11739;54.750;9.124;2022-09-20T19:10:09;2.33;;;1.80;;
23140;SDS011;11739;54.750;9.124;2022-09-20T19:16:18;2.10;;;1.27;;
23140;SDS011;11739;54.750;9.124;2022-09-20T19:24:45;2.65;;;1.20;;
23140;SDS011;11739;54.750;9.124;2022-09-20T19:27:15;2.03;;;1.02;;
23140;SDS011;11739;54.750;9.124;2022-09-20T19:29:42;2.72;;;1.10;;
23140;SDS011;11739;54.750;9.124;2022-09-20T19:32:13;2.75;;;1.10;;
23140;SDS011;11739;54.750;9.124;2022-09-20T19:34:42;2.38;;;1.20;;
23140;SDS011;11739;54.750;9.124;2022-09-20T19:48:47;4.47;;;1.33;;
23140;SDS011;11739;54.750;9.124;2022-09-20T19:51:20;1.90;;;1.17;;
23140;SDS011;11739;54.750;9.124;2022-09-20T19:53:47;3.08;;;1.02;;
23140;SDS011;11739;54.750;9.124;2022-09-20T19:56:24;1.70;;;1.08;;
23140;SDS011;11739;54.750;9.124;2022-09-20T19:58:53;1.88;;;1.00;;
23140;SDS011;11739;54.750;9.124;2022-09-20T20:01:21;1.42;;;1.17;;
23140;SDS011;11739;54.750;9.124;2022-09-20T20:03:49;2.63;;;1.83;;
23140;SDS011;11739;54.750;9.124;2022-09-20T20:06:27;1.90;;;1.05;;
23140;SDS011;11739;54.750;9.124;2022-09-20T20:11:35;2.30;;;1.10;;
23140;SDS011;11739;54.750;9.124;2022-09-20T20:17:24;1.38;;;1.05;;
23140;SDS011;11739;54.750;9.124;2022-09-20T20:25:58;1.75;;;1.00;;
23140;SDS011;11739;54.750;9.124;2022-09-20T20:28:28;1.27;;;0.80;;
23140;SDS011;11739;54.750;9.124;2022-09-20T20:30:55;3.60;;;1.20;;
23140;SDS011;11739;54.750;9.124;2022-09-20T20:33:25;1.52;;;1.02;;
23140;SDS011;11739;54.750;9.124;2022-09-20T20:35:54;1.52;;;1.10;;
23140;SDS011;11739;54.750;9.124;2022-09-20T20:38:22;1.83;;;1.30;;
23140;SDS011;11739;54.750;9.124;2022-09-20T20:40:59;2.00;;;1.05;;
23140;SDS011;11739;54.750;9.124;2022-09-20T20:43:30;1.17;;;0.93;;
23140;SDS011;11739;54.750;9.124;2022-09-20T20:46:02;1.40;;;1.10;;